Time;durP1;ratioP1;P1;durP2;ratioP2;P2;SDS_P1;SDS_P2;PMS_P1;PMS_P2;Temp;Humidity;BMP_temperature;BMP_pressure;BME280_temperature;BME280_humidity;BME280_pressure;Samples;Min_cycle;Max_cycle;Signal;HPM_P1;HPM_P2
2022/08/26 00:02:27;;;;;;;7.53;5.73;;;20.90;99.90;;;;;;5062264;28;20301;-47
2022/08/26 00:04:54;;;;;;;6.60;5.60;;;20.90;99.90;;;;;;5053366;28;20214;-49
2022/08/26 00:07:22;;;;;;;9.87;5.43;;;20.90;99.90;;;;;;5066519;28;20199;-47
2022/08/26 00:09:48;;;;;;;6.63;5.87;;;20.80;99.90;;;;;;5070820;28;20214;-45
2022/08/26 00:12:15;;;;;;;7.40;5.50;;;20.80;99.90;;;;;;5063165;28;20214;-51
2022/08/26 00:14:42;;;;;;;12.27;5.90;;;20.80;99.90;;;;;;5057677;28;20202;-46
2022/08/26 00:17:09;;;;;;;8.47;5.70;;;20.90;99.90;;;;;;5085380;28;20647;-46
2022/08/26 00:19:38;;;;;;;8.33;6.00;;;20.80;99.90;;;;;;5067219;28;20248;-45
2022/08/26 00:22:05;;;;;;;8.37;5.43;;;20.90;99.90;;;;;;5071315;28;20210;-45
2022/08/26 00:24:32;;;;;;;8.33;5.53;;;20.80;99.90;;;;;;5064406;28;20269;-47
2022/08/26 00:26:59;;;;;;;8.30;6.20;;;20.80;99.90;;;;;;5065342;28;20223;-46
2022/08/26 00:29:26;;;;;;;6.93;5.57;;;20.80;99.90;;;;;;5061916;28;20218;-50
2022/08/26 00:31:53;;;;;;;8.50;5.53;;;20.80;99.90;;;;;;5074195;28;20396;-46
2022/08/26 00:34:20;;;;;;;6.80;5.67;;;20.80;99.90;;;;;;5065974;28;20190;-48
2022/08/26 00:36:48;;;;;;;6.30;4.87;;;20.80;99.90;;;;;;5063111;28;20200;-45
2022/08/26 00:39:15;;;;;;;8.37;5.63;;;20.80;99.90;;;;;;5066076;28;20195;-48
2022/08/26 00:41:42;;;;;;;6.23;5.63;;;20.80;99.90;;;;;;5062432;28;20229;-46
2022/08/26 00:44:10;;;;;;;6.07;5.47;;;20.80;99.90;;;;;;5064272;28;20199;-48
2022/08/26 00:46:41;;;;;;;8.10;5.47;;;20.80;99.90;;;;;;5060700;28;20205;-47
2022/08/26 00:49:12;;;;;;;8.70;5.53;;;20.80;99.90;;;;;;5065140;28;20230;-49
2022/08/26 00:51:45;;;;;;;10.77;5.50;;;20.80;99.90;;;;;;5055164;28;20922;-49
2022/08/26 00:54:15;;;;;;;8.40;6.27;;;20.70;99.90;;;;;;5079705;28;20194;-49
2022/08/26 00:56:48;;;;;;;9.23;5.50;;;20.80;99.90;;;;;;5070248;28;20193;-46
2022/08/26 00:59:16;;;;;;;10.00;5.47;;;20.70;99.90;;;;;;5083034;28;20205;-48
2022/08/26 01:01:43;;;;;;;10.30;5.67;;;20.70;99.90;;;;;;5061721;28;20219;-46
2022/08/26 01:04:13;;;;;;;8.57;5.30;;;20.70;99.90;;;;;;5079332;28;20296;-48
2022/08/26 01:06:41;;;;;;;5.83;5.23;;;20.70;99.90;;;;;;5055661;28;20268;-46
2022/08/26 01:09:08;;;;;;;8.70;6.07;;;20.60;99.90;;;;;;5074865;28;20276;-47
2022/08/26 01:11:36;;;;;;;8.43;5.20;;;20.70;99.90;;;;;;5060500;28;20279;-47
2022/08/26 01:14:06;;;;;;;9.63;5.90;;;20.60;99.90;;;;;;5063755;28;20199;-47
2022/08/26 01:16:34;;;;;;;9.33;5.93;;;20.60;99.90;;;;;;5056233;28;20280;-46
2022/08/26 01:19:06;;;;;;;9.33;5.17;;;20.70;99.90;;;;;;5069059;28;20205;-47
2022/08/26 01:21:40;;;;;;;6.73;6.10;;;20.60;99.90;;;;;;5063131;28;20218;-47
2022/08/26 01:24:10;;;;;;;9.87;5.23;;;20.60;99.90;;;;;;5071502;28;20202;-48
2022/08/26 01:26:41;;;;;;;7.17;4.60;;;20.50;99.90;;;;;;5067047;28;20873;-45
2022/08/26 01:29:12;;;;;;;9.13;5.63;;;20.60;99.90;;;;;;5064311;28;20221;-46
2022/08/26 01:31:43;;;;;;;6.30;4.97;;;20.60;99.90;;;;;;5056856;28;20236;-45
2022/08/26 01:34:17;;;;;;;9.07;5.50;;;20.50;99.90;;;;;;5071484;28;20849;-48
2022/08/26 01:36:45;;;;;;;8.90;5.93;;;20.50;99.90;;;;;;5065708;28;20214;-47
2022/08/26 01:39:13;;;;;;;10.50;6.40;;;20.40;99.90;;;;;;5076451;28;20199;-47
2022/08/26 01:41:40;;;;;;;9.07;6.07;;;20.40;99.90;;;;;;5072420;28;20225;-47
2022/08/26 01:44:13;;;;;;;6.37;5.77;;;21.00;99.90;;;;;;5074840;28;20206;-46
2022/08/26 01:46:41;;;;;;;6.53;5.83;;;20.50;99.90;;;;;;5069889;28;20197;-46
2022/08/26 01:49:08;;;;;;;11.63;6.33;;;20.50;99.90;;;;;;5070761;28;20221;-46
2022/08/26 01:51:37;;;;;;;9.13;6.40;;;20.40;99.90;;;;;;5060074;28;21974;-46
2022/08/26 01:54:05;;;;;;;12.73;6.13;;;20.50;99.90;;;;;;5076324;28;20194;-46
2022/08/26 01:56:35;;;;;;;8.93;5.77;;;20.40;99.90;;;;;;5069282;28;20903;-46
2022/08/26 01:59:06;;;;;;;9.37;6.23;;;20.40;99.90;;;;;;5071559;28;20201;-45
2022/08/26 02:01:33;;;;;;;9.33;6.10;;;20.40;99.90;;;;;;5058485;28;20219;-48
2022/08/26 02:04:07;;;;;;;6.23;5.27;;;20.40;99.90;;;;;;5069118;28;20199;-46
2022/08/26 02:06:37;;;;;;;9.97;5.73;;;20.40;99.90;;;;;;5059127;28;20201;-48
2022/08/26 02:09:05;;;;;;;9.23;6.30;;;20.40;99.90;;;;;;5052414;28;20237;-45
2022/08/26 02:11:32;;;;;;;9.50;5.77;;;20.30;99.90;;;;;;5070139;28;20221;-49
2022/08/26 02:14:03;;;;;;;8.03;5.73;;;20.30;99.90;;;;;;5080263;28;20202;-45
2022/08/26 02:16:39;;;;;;;8.73;5.70;;;20.30;99.90;;;;;;5079087;28;20197;-47
2022/08/26 02:19:08;;;;;;;9.07;5.40;;;20.30;99.90;;;;;;5082939;28;20194;-46
2022/08/26 02:21:35;;;;;;;13.10;6.20;;;20.30;99.90;;;;;;5059205;28;20211;-44
2022/08/26 02:24:09;;;;;;;5.73;4.80;;;20.20;99.90;;;;;;5067733;28;20229;-47
2022/08/26 02:26:36;;;;;;;5.60;5.13;;;20.30;99.90;;;;;;5071320;28;20895;-47
2022/08/26 02:29:09;;;;;;;9.67;6.20;;;20.30;99.90;;;;;;5073775;28;20225;-48
2022/08/26 02:31:37;;;;;;;11.27;5.60;;;20.30;99.90;;;;;;5064903;28;20973;-45
2022/08/26 02:34:11;;;;;;;8.93;6.03;;;20.20;99.90;;;;;;5062558;28;20206;-47
2022/08/26 02:36:38;;;;;;;11.63;6.33;;;20.30;99.90;;;;;;5071767;28;20198;-45
2022/08/26 02:39:06;;;;;;;7.73;6.00;;;20.20;99.90;;;;;;5058628;28;20194;-45
2022/08/26 02:41:33;;;;;;;9.23;5.87;;;20.20;99.90;;;;;;5067469;28;20214;-48
2022/08/26 02:44:01;;;;;;;7.67;5.07;;;20.20;99.90;;;;;;5062443;28;20218;-44
2022/08/26 02:46:30;;;;;;;8.97;5.80;;;20.20;99.90;;;;;;5059485;28;20281;-50
2022/08/26 02:48:56;;;;;;;6.67;5.60;;;20.20;99.90;;;;;;5063280;28;20245;-46
2022/08/26 02:51:23;;;;;;;8.23;6.10;;;20.20;99.90;;;;;;5056621;28;20229;-49
2022/08/26 02:53:50;;;;;;;8.43;5.93;;;20.20;99.90;;;;;;5050312;28;20216;-44
2022/08/26 02:56:17;;;;;;;8.40;6.57;;;20.10;99.90;;;;;;5074792;28;20535;-48
2022/08/26 02:58:44;;;;;;;7.43;6.03;;;20.10;99.90;;;;;;5065374;28;20190;-45
2022/08/26 03:01:19;;;;;;;8.93;5.80;;;20.10;99.90;;;;;;5072763;28;20224;-46
2022/08/26 03:03:48;;;;;;;9.17;6.17;;;20.10;99.90;;;;;;5063068;28;20194;-46
2022/08/26 03:06:14;;;;;;;8.83;6.17;;;20.00;99.90;;;;;;5061555;28;20550;-49
2022/08/26 03:08:41;;;;;;;11.40;6.63;;;20.00;99.90;;;;;;5068719;28;20190;-49
2022/08/26 03:11:09;;;;;;;8.53;6.17;;;20.00;99.90;;;;;;5064657;28;20215;-47
2022/08/26 03:13:37;;;;;;;6.90;6.30;;;20.00;99.90;;;;;;5067388;28;20200;-48
2022/08/26 03:16:04;;;;;;;8.47;6.40;;;20.00;99.90;;;;;;5069652;28;20217;-45
2022/08/26 03:18:31;;;;;;;11.87;6.57;;;19.90;99.90;;;;;;5059969;28;20199;-45
2022/08/26 03:21:05;;;;;;;8.23;7.20;;;20.00;99.90;;;;;;5069924;28;20239;-46
2022/08/26 03:23:33;;;;;;;9.17;6.73;;;20.00;99.90;;;;;;5053794;28;20200;-47
2022/08/26 03:26:01;;;;;;;9.33;6.03;;;19.90;99.90;;;;;;5061040;28;20195;-49
2022/08/26 03:28:28;;;;;;;10.27;5.87;;;19.90;99.90;;;;;;5073330;28;20265;-49
2022/08/26 03:30:53;;;;;;;13.30;7.10;;;19.90;99.90;;;;;;5068362;28;20279;-45
2022/08/26 03:33:21;;;;;;;8.17;6.60;;;19.90;99.90;;;;;;5062916;28;20195;-47
2022/08/26 03:35:48;;;;;;;10.63;6.60;;;19.90;99.90;;;;;;5081965;28;20944;-46
2022/08/26 03:38:16;;;;;;;10.40;6.90;;;19.90;99.90;;;;;;5072160;28;20194;-47
2022/08/26 03:40:44;;;;;;;9.43;6.57;;;19.90;99.90;;;;;;5058286;28;20202;-49
2022/08/26 03:43:15;;;;;;;8.87;5.93;;;19.90;99.90;;;;;;5077984;28;20210;-47
2022/08/26 03:45:43;;;;;;;11.73;6.70;;;19.90;99.90;;;;;;5070086;28;20187;-46
2022/08/26 03:48:10;;;;;;;9.70;6.73;;;19.90;99.90;;;;;;5070458;28;20206;-46
2022/08/26 03:50:37;;;;;;;7.27;6.13;;;19.90;99.90;;;;;;5075604;28;20226;-46
2022/08/26 03:53:04;;;;;;;10.53;7.30;;;19.90;99.90;;;;;;5067315;28;20205;-45
2022/08/26 03:55:33;;;;;;;8.57;6.10;;;19.90;99.90;;;;;;5062562;28;20202;-48
2022/08/26 03:58:01;;;;;;;10.57;6.03;;;19.80;99.90;;;;;;5058971;28;20194;-46
2022/08/26 04:00:29;;;;;;;8.83;6.30;;;19.80;99.90;;;;;;5067721;28;20205;-47
2022/08/26 04:02:56;;;;;;;9.17;6.50;;;19.80;99.90;;;;;;5071124;28;20225;-47
2022/08/26 04:05:23;;;;;;;11.33;6.80;;;19.80;99.90;;;;;;5063291;28;20574;-48
2022/08/26 04:07:51;;;;;;;10.03;6.93;;;19.80;99.90;;;;;;5065513;28;20850;-47
2022/08/26 04:10:20;;;;;;;7.93;6.93;;;19.80;99.90;;;;;;5059883;28;20217;-49
2022/08/26 04:12:50;;;;;;;8.37;6.93;;;19.70;99.90;;;;;;5058598;28;20222;-51
2022/08/26 04:15:17;;;;;;;11.60;7.23;;;19.70;99.90;;;;;;5066827;28;20658;-49
2022/08/26 04:17:45;;;;;;;10.30;7.17;;;19.70;99.90;;;;;;5077008;28;20242;-47
2022/08/26 04:20:13;;;;;;;9.73;7.47;;;19.70;99.90;;;;;;5067504;28;20194;-51
2022/08/26 04:22:40;;;;;;;10.60;7.03;;;19.70;99.90;;;;;;5076681;28;20297;-49
2022/08/26 04:25:09;;;;;;;12.20;7.00;;;19.60;99.90;;;;;;5067894;28;20202;-48
2022/08/26 04:27:35;;;;;;;7.67;6.47;;;19.60;99.90;;;;;;5062365;28;20281;-49
2022/08/26 04:30:04;;;;;;;8.27;7.00;;;19.60;99.90;;;;;;5064383;28;20206;-48
2022/08/26 04:32:31;;;;;;;12.23;7.47;;;19.60;99.90;;;;;;5075072;28;20985;-47
2022/08/26 04:34:59;;;;;;;9.33;7.73;;;19.60;99.90;;;;;;5077825;28;20206;-47
2022/08/26 04:37:25;;;;;;;12.77;8.10;;;19.60;99.90;;;;;;5061452;28;20198;-48
2022/08/26 04:39:53;;;;;;;14.73;8.63;;;19.60;99.90;;;;;;5065008;28;20202;-51
2022/08/26 04:42:21;;;;;;;14.83;7.47;;;19.60;99.90;;;;;;5070675;28;20226;-48
2022/08/26 04:44:48;;;;;;;9.50;7.10;;;19.60;99.90;;;;;;5065954;28;20303;-48
2022/08/26 04:47:16;;;;;;;8.13;7.30;;;19.60;99.90;;;;;;5066929;28;20191;-49
2022/08/26 04:49:43;;;;;;;8.30;6.27;;;19.60;99.90;;;;;;5063166;28;20218;-47
2022/08/26 04:52:10;;;;;;;11.20;7.33;;;19.60;99.90;;;;;;5068623;28;20730;-48
2022/08/26 04:54:37;;;;;;;10.73;7.77;;;19.60;99.90;;;;;;5069795;28;20885;-47
2022/08/26 04:57:04;;;;;;;12.60;7.73;;;19.60;99.90;;;;;;5067313;28;20568;-46
2022/08/26 04:59:32;;;;;;;12.07;7.83;;;19.60;99.90;;;;;;5059334;28;20234;-47
2022/08/26 05:02:00;;;;;;;10.83;7.70;;;19.60;99.90;;;;;;5069476;28;20219;-48
2022/08/26 05:04:29;;;;;;;12.03;8.30;;;19.70;99.90;;;;;;5060177;28;20207;-49
2022/08/26 05:06:56;;;;;;;10.70;7.67;;;19.70;99.90;;;;;;5076957;28;20201;-46
2022/08/26 05:09:23;;;;;;;11.57;8.10;;;19.70;99.90;;;;;;5080778;28;20202;-48
2022/08/26 05:11:50;;;;;;;14.30;7.93;;;19.70;99.90;;;;;;5071070;28;20222;-47
2022/08/26 05:14:17;;;;;;;14.47;8.43;;;19.70;99.90;;;;;;5052943;28;20211;-49
2022/08/26 05:16:44;;;;;;;13.87;8.23;;;19.70;99.90;;;;;;5076874;28;20201;-47
2022/08/26 05:19:11;;;;;;;10.57;8.23;;;19.80;99.90;;;;;;5060484;28;20198;-47
2022/08/26 05:21:39;;;;;;;13.90;8.03;;;19.80;99.90;;;;;;5072762;28;20285;-46
2022/08/26 05:24:06;;;;;;;9.40;7.77;;;19.80;99.90;;;;;;5070147;28;20197;-51
2022/08/26 05:26:33;;;;;;;12.03;8.57;;;19.80;99.90;;;;;;5063613;28;20206;-50
2022/08/26 05:29:01;;;;;;;14.13;8.40;;;19.90;99.90;;;;;;5069195;28;20201;-51
2022/08/26 05:31:29;;;;;;;13.37;8.53;;;19.90;99.90;;;;;;5054163;28;20226;-50
2022/08/26 05:33:57;;;;;;;13.03;8.70;;;19.90;99.90;;;;;;5070320;28;20213;-51
2022/08/26 05:36:26;;;;;;;13.30;8.53;;;20.00;99.90;;;;;;5058362;28;20229;-51
2022/08/26 05:38:54;;;;;;;10.30;7.70;;;20.00;99.90;;;;;;5064083;28;20681;-47
2022/08/26 05:41:23;;;;;;;11.53;9.10;;;20.00;99.90;;;;;;5064542;28;20253;-49
2022/08/26 05:43:50;;;;;;;13.13;9.13;;;20.10;99.90;;;;;;5062190;28;20289;-50
2022/08/26 05:46:18;;;;;;;13.87;9.40;;;20.10;99.90;;;;;;5053269;28;20546;-48
2022/08/26 05:48:45;;;;;;;9.13;8.23;;;20.20;99.90;;;;;;5073005;28;20215;-49
2022/08/26 05:51:12;;;;;;;15.17;8.60;;;20.20;99.90;;;;;;5065452;28;20219;-49
2022/08/26 05:53:40;;;;;;;12.73;7.83;;;20.20;99.90;;;;;;5067662;28;20192;-48
2022/08/26 05:56:11;;;;;;;14.70;8.13;;;20.30;99.90;;;;;;5069875;28;20203;-50
2022/08/26 05:58:41;;;;;;;15.33;8.93;;;20.30;99.90;;;;;;5060214;28;20202;-50
2022/08/26 06:01:11;;;;;;;13.27;8.60;;;20.30;99.90;;;;;;5061995;28;20213;-49
2022/08/26 06:03:40;;;;;;;13.43;9.03;;;20.30;99.90;;;;;;5062806;28;20198;-49
2022/08/26 06:06:10;;;;;;;13.57;9.10;;;20.30;99.90;;;;;;5062773;28;20234;-48
2022/08/26 06:08:38;;;;;;;13.53;8.90;;;20.30;99.90;;;;;;5068250;28;20207;-51
2022/08/26 06:11:06;;;;;;;15.20;8.73;;;20.40;99.90;;;;;;5072086;28;20283;-49
2022/08/26 06:13:35;;;;;;;10.63;9.23;;;20.40;99.90;;;;;;5060829;28;20207;-46
2022/08/26 06:16:04;;;;;;;12.87;9.03;;;20.50;99.90;;;;;;5058742;28;20200;-53
2022/08/26 06:18:35;;;;;;;9.63;8.30;;;20.50;99.90;;;;;;5070690;28;20203;-50
2022/08/26 06:21:12;;;;;;;15.80;8.27;;;20.50;99.90;;;;;;5062693;28;20913;-50
2022/08/26 06:26:24;;;;;;;11.87;8.57;;;20.70;99.90;;;;;;5070451;28;20217;-48
2022/08/26 06:28:52;;;;;;;14.80;8.27;;;20.70;99.90;;;;;;5076816;28;20293;-48
2022/08/26 06:31:19;;;;;;;15.90;8.30;;;20.70;99.90;;;;;;5057360;28;20241;-51
2022/08/26 06:33:46;;;;;;;11.03;8.17;;;20.70;99.90;;;;;;5069958;28;20225;-50
2022/08/26 06:36:19;;;;;;;11.10;7.80;;;20.80;99.90;;;;;;5065614;28;20205;-49
2022/08/26 06:38:47;;;;;;;14.43;8.27;;;20.80;99.90;;;;;;5069815;28;20282;-46
2022/08/26 06:41:14;;;;;;;12.67;8.27;;;20.80;99.90;;;;;;5070322;28;20205;-48
2022/08/26 06:43:40;;;;;;;11.93;7.77;;;20.80;99.90;;;;;;5066583;28;20202;-48
2022/08/26 06:46:12;;;;;;;11.67;7.83;;;20.90;99.90;;;;;;5058838;28;20202;-51
2022/08/26 06:48:39;;;;;;;11.07;7.10;;;21.00;99.90;;;;;;5053349;28;20202;-48
2022/08/26 06:51:08;;;;;;;11.33;7.23;;;21.20;99.90;;;;;;5065551;28;20218;-53
2022/08/26 06:53:35;;;;;;;12.47;7.77;;;21.30;99.90;;;;;;5076465;28;20202;-46
2022/08/26 06:56:05;;;;;;;11.80;7.83;;;21.40;99.90;;;;;;5072032;28;20210;-50
2022/08/26 06:58:32;;;;;;;10.70;7.23;;;21.60;99.90;;;;;;5070589;28;20943;-46
2022/08/26 07:00:58;;;;;;;10.33;6.97;;;21.60;99.90;;;;;;5069575;28;20218;-50
2022/08/26 07:03:26;;;;;;;11.00;7.57;;;21.80;99.90;;;;;;5058383;28;21989;-53
2022/08/26 07:05:53;;;;;;;13.03;7.43;;;21.90;99.90;;;;;;5069066;28;20202;-49
2022/08/26 07:08:22;;;;;;;12.40;7.53;;;;;;;;;;5070096;28;20622;-49
2022/08/26 07:10:49;;;;;;;12.40;7.40;;;22.30;99.90;;;;;;5059791;28;20678;-51
2022/08/26 07:13:17;;;;;;;8.15;7.35;;;22.40;99.90;;;;;;5072065;28;20238;-46
2022/08/26 07:15:43;;;;;;;12.95;6.88;;;22.60;99.90;;;;;;5069682;28;20559;-50
2022/08/26 07:18:10;;;;;;;10.67;7.00;;;22.80;99.90;;;;;;5070789;28;20199;-45
2022/08/26 07:20:40;;;;;;;9.48;6.93;;;22.90;99.90;;;;;;5064002;28;20213;-49
2022/08/26 07:23:07;;;;;;;13.00;7.32;;;23.00;99.90;;;;;;5066304;28;20201;-48
2022/08/26 07:25:34;;;;;;;15.30;7.72;;;23.10;99.90;;;;;;5070910;28;20206;-46
2022/08/26 07:28:01;;;;;;;8.88;7.38;;;23.30;99.90;;;;;;5075209;28;20194;-45
2022/08/26 07:30:28;;;;;;;8.10;7.28;;;23.30;99.90;;;;;;5077091;28;20286;-50
2022/08/26 07:32:56;;;;;;;11.38;7.15;;;23.50;99.90;;;;;;5060334;28;20229;-48
2022/08/26 07:35:24;;;;;;;11.68;7.63;;;23.60;99.90;;;;;;5064668;28;20213;-51
2022/08/26 07:37:52;;;;;;;9.93;6.63;;;23.70;99.90;;;;;;5068852;28;20232;-51
2022/08/26 07:40:20;;;;;;;9.98;7.07;;;23.80;99.90;;;;;;5072969;28;20228;-46
2022/08/26 07:42:47;;;;;;;9.50;7.15;;;23.90;99.90;;;;;;5071310;28;20271;-47
2022/08/26 07:45:14;;;;;;;10.40;7.13;;;24.10;99.90;;;;;;5074526;28;20205;-51
2022/08/26 07:47:41;;;;;;;8.02;7.00;;;24.20;99.90;;;;;;5067741;28;20571;-48
2022/08/26 07:50:08;;;;;;;11.50;7.70;;;24.30;99.90;;;;;;5055762;28;20197;-47
2022/08/26 07:52:37;;;;;;;12.15;7.13;;;24.20;99.90;;;;;;5072776;28;20226;-50
2022/08/26 07:55:07;;;;;;;10.15;7.20;;;24.30;99.90;;;;;;5067065;28;20220;-47
2022/08/26 07:57:34;;;;;;;9.82;7.47;;;24.50;99.90;;;;;;5070008;28;20665;-47
2022/08/26 08:00:01;;;;;;;12.52;7.88;;;24.50;99.90;;;;;;5069420;28;20400;-49
2022/08/26 08:02:29;;;;;;;10.32;7.43;;;24.50;99.90;;;;;;5071860;28;20316;-50
2022/08/26 08:04:57;;;;;;;8.70;7.03;;;24.60;99.90;;;;;;5052297;28;20217;-50
2022/08/26 08:07:24;;;;;;;11.57;6.60;;;24.80;99.90;;;;;;5073508;28;20202;-51
2022/08/26 08:09:50;;;;;;;13.07;7.63;;;25.00;99.90;;;;;;5066202;28;20280;-48
2022/08/26 08:12:19;;;;;;;13.07;7.68;;;25.10;99.90;;;;;;5076285;28;20254;-49
2022/08/26 08:14:47;;;;;;;16.23;7.38;;;25.50;99.90;;;;;;5065662;28;20217;-52
2022/08/26 08:17:14;;;;;;;11.05;7.07;;;25.30;99.90;;;;;;5068132;28;20197;-50
2022/08/26 08:19:41;;;;;;;13.05;7.32;;;25.40;99.90;;;;;;5068782;28;20263;-47
2022/08/26 08:22:08;;;;;;;10.20;7.93;;;25.50;99.90;;;;;;5061437;28;20205;-51
2022/08/26 08:24:35;;;;;;;12.43;7.22;;;25.30;99.90;;;;;;5069385;28;20218;-48
2022/08/26 08:27:02;;;;;;;11.43;7.80;;;25.30;99.90;;;;;;5073030;28;20186;-47
2022/08/26 08:29:30;;;;;;;9.25;8.05;;;25.30;99.90;;;;;;5077851;28;20276;-49
2022/08/26 08:31:57;;;;;;;13.98;7.07;;;25.30;99.90;;;;;;5066477;28;20966;-50
2022/08/26 08:34:25;;;;;;;15.48;8.57;;;25.50;99.90;;;;;;5072214;28;20202;-47
2022/08/26 08:36:52;;;;;;;10.63;6.82;;;25.60;99.90;;;;;;5061165;28;20205;-50
2022/08/26 08:39:19;;;;;;;12.50;7.05;;;25.60;99.90;;;;;;5077886;28;20779;-51
2022/08/26 08:42:04;;;;;;;8.95;7.20;;;25.70;99.90;;;;;;5066543;28;20298;-48
2022/08/26 08:44:36;;;;;;;15.18;7.68;;;25.60;99.90;;;;;;5077345;28;20206;-49
2022/08/26 08:47:08;;;;;;;10.45;6.35;;;25.70;99.90;;;;;;5071753;28;20201;-49
2022/08/26 08:49:35;;;;;;;11.95;7.82;;;25.80;99.90;;;;;;5067107;28;20202;-48
2022/08/26 08:52:10;;;;;;;13.70;7.82;;;26.10;99.90;;;;;;5062413;28;20368;-49
2022/08/26 08:54:37;;;;;;;8.70;7.22;;;25.90;99.90;;;;;;5069350;28;20213;-47
2022/08/26 08:57:11;;;;;;;9.55;7.22;;;26.00;99.90;;;;;;5056627;28;20214;-46
2022/08/26 08:59:52;;;;;;;9.23;6.80;;;25.80;99.90;;;;;;5061065;28;20202;-49
2022/08/26 09:02:25;;;;;;;11.77;7.22;;;25.80;99.90;;;;;;5072152;28;20217;-48
2022/08/26 09:05:07;;;;;;;9.57;7.65;;;25.80;99.90;;;;;;5064624;28;21043;-46
2022/08/26 09:07:37;;;;;;;12.52;6.63;;;25.70;99.90;;;;;;5057016;28;20312;-47
2022/08/26 09:10:17;;;;;;;10.23;6.97;;;25.70;99.90;;;;;;5071225;28;20186;-48
2022/08/26 09:12:47;;;;;;;12.65;7.60;;;25.50;99.90;;;;;;5065593;28;20229;-46
2022/08/26 09:15:20;;;;;;;10.75;6.78;;;25.40;99.90;;;;;;5066201;28;20208;-46
2022/08/26 09:17:56;;;;;;;8.23;6.03;;;25.30;99.90;;;;;;5061424;28;20281;-51
2022/08/26 09:20:35;;;;;;;10.18;6.50;;;25.20;99.90;;;;;;5068136;28;20311;-53
2022/08/26 09:23:02;;;;;;;15.45;8.00;;;25.30;99.90;;;;;;5051087;28;20212;-50
2022/08/26 09:25:29;;;;;;;7.50;6.70;;;25.20;99.90;;;;;;5069682;28;20201;-47
2022/08/26 09:27:55;;;;;;;10.55;7.13;;;25.10;99.90;;;;;;5066665;28;20205;-47
2022/08/26 09:30:28;;;;;;;16.33;7.10;;;25.10;99.90;;;;;;5065416;28;20214;-46
2022/08/26 09:33:01;;;;;;;9.68;6.75;;;25.10;99.90;;;;;;5073762;28;20232;-46
2022/08/26 09:35:30;;;;;;;11.90;6.90;;;25.10;99.90;;;;;;5069403;28;20209;-50
2022/08/26 09:37:58;;;;;;;11.63;7.03;;;25.20;99.90;;;;;;5067781;28;20280;-48
2022/08/26 09:40:29;;;;;;;9.75;7.25;;;25.60;99.90;;;;;;5054030;28;20234;-49
2022/08/26 09:43:07;;;;;;;10.57;7.20;;;25.10;99.90;;;;;;5062888;28;20225;-46
2022/08/26 09:45:37;;;;;;;11.82;7.43;;;25.20;99.90;;;;;;5058243;28;20214;-49
2022/08/26 09:48:04;;;;;;;8.68;7.07;;;25.20;99.90;;;;;;5073531;28;20202;-48
2022/08/26 09:50:33;;;;;;;11.30;7.15;;;25.30;99.90;;;;;;5060759;28;20193;-49
2022/08/26 09:53:08;;;;;;;11.65;7.78;;;25.30;99.90;;;;;;5068045;28;20316;-46
2022/08/26 09:55:36;;;;;;;14.13;7.80;;;25.30;99.90;;;;;;5062865;28;20205;-49
2022/08/26 09:58:04;;;;;;;13.32;7.88;;;25.30;99.90;;;;;;5064790;28;20244;-49
2022/08/26 10:00:34;;;;;;;10.38;6.93;;;25.30;99.90;;;;;;5056153;28;21063;-50
2022/08/26 10:03:07;;;;;;;10.13;8.15;;;25.30;99.90;;;;;;5072850;28;20553;-49
2022/08/26 10:05:40;;;;;;;11.07;7.72;;;25.20;99.90;;;;;;5059382;28;20256;-48
2022/08/26 10:08:25;;;;;;;13.18;7.80;;;25.30;99.90;;;;;;5066384;28;20247;-46
2022/08/26 10:10:54;;;;;;;9.38;7.07;;;25.20;99.90;;;;;;5077134;28;20663;-47
2022/08/26 10:13:26;;;;;;;11.77;7.78;;;25.20;99.90;;;;;;5060887;28;20229;-50
2022/08/26 10:15:59;;;;;;;13.93;8.10;;;25.20;99.90;;;;;;5061783;28;20198;-46
2022/08/26 10:18:32;;;;;;;11.98;7.63;;;25.30;99.90;;;;;;5073282;28;20239;-47
2022/08/26 10:21:06;;;;;;;12.73;8.07;;;25.30;99.90;;;;;;5069435;28;20218;-48
2022/08/26 10:23:39;;;;;;;12.02;7.65;;;25.40;99.90;;;;;;5048425;28;20478;-48
2022/08/26 10:26:12;;;;;;;16.80;6.97;;;25.50;99.90;;;;;;5070137;28;20198;-48
2022/08/26 10:28:43;;;;;;;10.73;6.97;;;25.60;99.90;;;;;;5063104;28;20206;-47
2022/08/26 10:31:21;;;;;;;12.57;8.00;;;25.80;99.90;;;;;;5069168;28;20714;-47
2022/08/26 10:33:50;;;;;;;9.65;7.47;;;25.80;99.90;;;;;;5069734;28;20220;-48
2022/08/26 10:39:09;;;;;;;15.25;8.52;;;25.80;99.90;;;;;;5069069;28;20715;-48
2022/08/26 10:41:40;;;;;;;10.63;7.50;;;26.00;99.90;;;;;;5067717;28;20222;-48
2022/08/26 10:44:11;;;;;;;8.65;7.85;;;26.10;99.90;;;;;;5070329;28;20701;-50
2022/08/26 10:46:44;;;;;;;11.82;7.93;;;26.10;99.90;;;;;;5059523;28;20203;-47
2022/08/26 10:49:16;;;;;;;8.80;7.80;;;26.20;99.90;;;;;;5078987;28;20201;-45
2022/08/26 10:51:50;;;;;;;13.23;8.40;;;26.20;99.90;;;;;;5077660;28;20945;-47
2022/08/26 10:54:24;;;;;;;13.07;7.40;;;26.40;99.90;;;;;;5061395;28;20198;-48
2022/08/26 10:56:57;;;;;;;11.27;7.57;;;26.40;99.90;;;;;;5063982;28;20197;-49
2022/08/26 10:59:35;;;;;;;12.18;7.93;;;26.50;99.90;;;;;;5064979;28;20190;-52
2022/08/26 11:02:11;;;;;;;13.00;7.10;;;26.50;99.90;;;;;;5060900;28;20673;-46
2022/08/26 11:04:45;;;;;;;8.77;7.28;;;26.60;99.90;;;;;;5071040;28;20205;-50
2022/08/26 11:07:36;;;;;;;15.40;7.75;;;26.60;99.90;;;;;;5077647;28;20276;-48
2022/08/26 11:10:07;;;;;;;11.25;7.72;;;26.80;99.90;;;;;;5067276;28;20222;-47
2022/08/26 11:12:49;;;;;;;12.18;7.50;;;26.90;99.90;;;;;;5054916;28;20305;-48
2022/08/26 11:16:07;;;;;;;18.00;7.82;;;27.20;99.90;;;;;;5065852;28;20206;-46
2022/08/26 11:18:40;;;;;;;7.72;6.93;;;27.30;99.90;;;;;;5064671;28;20276;-48
2022/08/26 11:21:39;;;;;;;15.40;7.13;;;27.40;99.90;;;;;;5073405;28;20218;-50
2022/08/26 11:24:08;;;;;;;11.32;7.38;;;27.50;99.90;;;;;;5063854;28;20211;-46
2022/08/26 11:26:36;;;;;;;14.70;7.40;;;27.60;99.90;;;;;;5056191;28;20203;-49
2022/08/26 11:29:03;;;;;;;12.70;7.10;;;27.70;99.90;;;;;;5068616;28;20252;-47
2022/08/26 11:31:53;;;;;;;11.18;6.68;;;27.80;99.90;;;;;;5059723;28;20223;-48
2022/08/26 11:34:58;;;;;;;11.65;7.68;;;27.90;99.90;;;;;;5062972;28;20213;-48
2022/08/26 11:37:32;;;;;;;10.23;6.93;;;28.00;99.90;;;;;;5073450;28;20205;-47
2022/08/26 11:40:03;;;;;;;15.02;7.15;;;27.90;99.90;;;;;;5084455;28;20201;-48
2022/08/26 11:42:36;;;;;;;15.90;7.50;;;28.00;99.90;;;;;;5048998;28;20213;-46
2022/08/26 11:45:15;;;;;;;14.40;7.85;;;28.10;99.90;;;;;;5074545;28;20202;-46
2022/08/26 11:47:43;;;;;;;11.70;7.82;;;28.20;99.90;;;;;;5073131;28;20200;-48
2022/08/26 11:50:16;;;;;;;15.13;6.93;;;28.20;99.90;;;;;;5071711;28;20201;-51
2022/08/26 11:52:51;;;;;;;12.00;7.38;;;27.90;99.90;;;;;;5064027;28;20857;-48
2022/08/26 11:55:18;;;;;;;13.80;7.05;;;27.90;99.90;;;;;;5060734;28;20573;-47
2022/08/26 11:57:49;;;;;;;11.52;6.80;;;28.10;99.90;;;;;;5063803;28;20206;-46
2022/08/26 12:00:20;;;;;;;8.18;7.20;;;28.30;99.90;;;;;;5069319;28;20198;-47
2022/08/26 12:02:48;;;;;;;10.77;7.45;;;28.40;99.90;;;;;;5064217;28;20226;-50
2022/08/26 12:05:22;;;;;;;14.55;7.32;;;28.40;99.90;;;;;;5061241;28;20205;-49
2022/08/26 12:07:50;;;;;;;9.68;6.53;;;28.40;99.90;;;;;;5070465;28;20218;-49
2022/08/26 12:10:28;;;;;;;11.82;6.25;;;28.40;99.90;;;;;;5070619;28;20202;-50
2022/08/26 12:12:56;;;;;;;11.73;7.32;;;28.50;99.90;;;;;;5059871;28;20221;-47
2022/08/26 12:15:23;;;;;;;10.07;7.47;;;28.60;99.90;;;;;;5063753;28;20202;-49
2022/08/26 12:17:51;;;;;;;9.45;6.72;;;28.50;99.90;;;;;;5081582;28;20198;-47
2022/08/26 12:20:44;;;;;;;12.75;6.70;;;28.20;99.90;;;;;;5069796;28;20202;-50
2022/08/26 12:23:20;;;;;;;9.27;6.47;;;28.30;99.90;;;;;;5062345;28;20686;-50
2022/08/26 12:25:47;;;;;;;7.95;6.25;;;28.40;99.90;;;;;;5064636;28;20204;-51
2022/08/26 12:28:15;;;;;;;8.15;6.88;;;28.40;99.90;;;;;;5054697;28;20245;-52
2022/08/26 12:30:59;;;;;;;10.65;7.13;;;28.50;99.90;;;;;;5069316;28;20202;-48
2022/08/26 12:33:26;;;;;;;8.63;7.07;;;28.50;99.90;;;;;;5074597;28;20225;-48
2022/08/26 12:35:56;;;;;;;10.88;6.72;;;28.30;99.90;;;;;;5084827;28;20281;-49
2022/08/26 12:38:24;;;;;;;9.05;7.13;;;28.20;99.90;;;;;;5072459;28;20202;-47
2022/08/26 12:40:51;;;;;;;13.45;8.05;;;28.00;99.90;;;;;;5082819;28;20198;-49
2022/08/26 12:43:37;;;;;;;19.23;7.82;;;27.70;99.90;;;;;;5054913;28;20206;-48
2022/08/26 12:46:05;;;;;;;8.85;7.28;;;27.70;99.90;;;;;;5058504;28;20237;-47
2022/08/26 12:48:35;;;;;;;10.50;7.07;;;27.70;99.90;;;;;;5077641;28;20206;-46
2022/08/26 12:51:06;;;;;;;11.70;7.10;;;27.80;99.90;;;;;;5067111;28;20289;-49
2022/08/26 12:53:35;;;;;;;11.07;8.10;;;27.90;99.90;;;;;;5065257;28;20214;-46
2022/08/26 12:56:04;;;;;;;11.50;7.25;;;28.10;99.90;;;;;;5061006;28;21004;-48
2022/08/26 12:58:32;;;;;;;12.02;7.57;;;28.30;99.90;;;;;;5057449;28;20247;-49
2022/08/26 13:01:20;;;;;;;14.70;7.90;;;28.50;99.90;;;;;;5073270;28;20214;-47